Arcata, CA (95518)

8:05 AM PDT on September 05, 2015 (GMT -0700)
Woodland Heights | | Change Station
CLOSE
Current Station
Personal Weather Station
Location: Arcata, CA
Elevation: 194 ft
Nearby Weather Stations

Elev 194 ft 40.89 °N, 124.07 °W | Updated 4 minutes ago

Clear
Clear
47.8 °F
Feels Like 48 °F
N
0.0
Wind Variable Wind from East
Gusts 0.0 mph

Today
High -- | Low -- °F
--% Chance of Precip.
Yesterday
High -- | Low -- °F
Precip. -- in
6:46 AM 7:42 PM
Waning Gibbous, 48% visible
Pressure 30.12 in
Visibility 10.0 miles
Clouds Clear
Windchill 48 °F
Dew Point 46 °F
Humidity 94%
Rainfall 0.00 in
Snow Depth Not available.
UV 1 out of 12
Pollen 7.50 out of 12
Air Quality Not available.
Flu Activity Not available.
METAR KACV 051453Z AUTO 00000KT 10SM CLR 09/08 A3010 RMK AO2 SLP198 T00940083 53018
Pressure 30.12 in
Visibility 10.0 miles
Clouds Clear
Windchill 48 °F
Dew Point 46 °F
Humidity 94%
Rainfall 0.00 in
Snow Depth Not available.
UV 1 out of 12
Pollen 7.50 out of 12
Air Quality Not available.
Flu Activity Not available.
METAR KACV 051453Z AUTO 00000KT 10SM CLR 09/08 A3010 RMK AO2 SLP198 T00940083 53018

10-Day Weather Forecast

×

Almanac

Astronomy

Sep. 05, 2015 Rise Set
Actual Time
Civil Twilight
Nautical Twilight
Astronomical Twilight
Moon
Length of Visible Light
Length of Day
Tomorrow will be .
, % of the Moon is Illuminated

Today's Extremes

State Highs State Lows

Community

WunderPhotos

Upload Photos

1,852,480 photos uploaded!

WunderBlogs® & News

Nearby

Air Quality

  Air Quality AQ Index Pollutant
Not available.

Snow Depth

Station Depth Elevation

Earthquake Activity

City Distance Mag. Time & Date
Minimum magnitude displayed is 2.5.

Coastal Water Temperatures

Place Temperature

Stations

Nearby Weather Stations

Station Location Temp. Windchill Dew Point Humidity Wind Precip. Elev Updated Type